createdAt,value
2022-10-10T00:01:37.827Z,9.00
2022-10-10T00:04:07.367Z,8.17
2022-10-10T00:06:36.269Z,9.43
2022-10-10T00:09:05.853Z,8.57
2022-10-10T00:11:34.651Z,8.97
2022-10-10T00:14:03.393Z,8.30
2022-10-10T00:16:33.562Z,9.37
2022-10-10T00:19:02.358Z,9.40
2022-10-10T00:21:30.979Z,8.47
2022-10-10T00:24:00.890Z,8.53
2022-10-10T00:26:29.937Z,8.97
2022-10-10T00:28:58.541Z,8.40
2022-10-10T00:31:27.166Z,8.70
2022-10-10T00:33:57.157Z,8.47
2022-10-10T00:36:25.789Z,8.63
2022-10-10T00:38:54.352Z,9.10
2022-10-10T00:41:24.314Z,8.20
2022-10-10T00:44:06.737Z,9.77
2022-10-10T00:46:35.500Z,8.43
2022-10-10T00:49:08.419Z,8.83
2022-10-10T00:51:37.311Z,8.20
2022-10-10T00:54:10.059Z,9.30
2022-10-10T00:56:42.881Z,8.90
2022-10-10T00:59:12.846Z,8.10
2022-10-10T01:01:42.478Z,9.00
2022-10-10T01:04:39.558Z,9.27
2022-10-10T01:07:14.873Z,8.23
2022-10-10T01:09:45.933Z,9.20
2022-10-10T01:12:21.962Z,8.57
2022-10-10T01:14:59.855Z,7.90
2022-10-10T01:17:34.315Z,8.37
2022-10-10T01:20:27.606Z,10.60
2022-10-10T01:23:32.364Z,8.90
2022-10-10T01:26:23.229Z,8.53
2022-10-10T01:28:58.523Z,8.80
2022-10-10T01:31:28.155Z,9.03
2022-10-10T01:34:07.471Z,9.73
2022-10-10T01:36:40.383Z,9.97
2022-10-10T01:39:12.439Z,10.37
2022-10-10T01:41:47.162Z,8.40
2022-10-10T01:44:20.437Z,9.60
2022-10-10T01:46:49.270Z,9.30
2022-10-10T01:49:18.074Z,9.90
2022-10-10T01:52:04.655Z,9.20
2022-10-10T01:54:45.767Z,9.87
2022-10-10T01:57:26.259Z,9.67
2022-10-10T02:00:03.727Z,9.80
2022-10-10T02:02:43.214Z,10.10
2022-10-10T02:05:20.992Z,9.70
2022-10-10T02:07:55.329Z,11.40
2022-10-10T02:10:29.446Z,10.43
2022-10-10T02:13:00.178Z,9.50
2022-10-10T02:15:36.534Z,10.50
2022-10-10T02:18:08.060Z,10.10
2022-10-10T02:20:37.492Z,11.13
2022-10-10T02:23:07.019Z,10.50
2022-10-10T02:25:41.029Z,10.80
2022-10-10T02:28:15.049Z,10.13
2022-10-10T02:30:48.331Z,11.93
2022-10-10T02:33:21.711Z,11.30
2022-10-10T02:35:53.204Z,11.27
2022-10-10T02:38:22.521Z,12.17
2022-10-10T02:40:51.827Z,12.63
2022-10-10T02:43:21.319Z,12.93
2022-10-10T02:45:51.739Z,12.10
2022-10-10T02:48:20.708Z,13.00
2022-10-10T02:50:49.448Z,13.70
2022-10-10T02:53:18.016Z,12.70
2022-10-10T02:55:46.557Z,14.77
2022-10-10T02:58:15.247Z,14.07
2022-10-10T03:00:43.906Z,13.23
2022-10-10T03:03:13.908Z,16.20
2022-10-10T03:05:42.540Z,15.33
2022-10-10T03:08:11.969Z,13.00
2022-10-10T03:10:41.170Z,14.70
2022-10-10T03:13:09.796Z,13.67
2022-10-10T03:15:38.358Z,15.73
2022-10-10T03:18:07.111Z,14.40
2022-10-10T03:20:37.099Z,13.90
2022-10-10T03:23:05.751Z,14.70
2022-10-10T03:25:35.242Z,14.47
2022-10-10T03:28:03.932Z,14.47
2022-10-10T03:30:32.489Z,14.50
2022-10-10T03:33:01.037Z,14.20
2022-10-10T03:35:30.129Z,13.50
2022-10-10T03:38:01.121Z,13.00
2022-10-10T03:40:30.550Z,14.10
2022-10-10T03:42:59.995Z,13.67
2022-10-10T03:45:28.639Z,13.87
2022-10-10T03:47:57.191Z,12.97
2022-10-10T03:50:25.795Z,14.07
2022-10-10T03:52:54.309Z,13.00
2022-10-10T03:55:24.398Z,14.80
2022-10-10T03:57:52.964Z,15.47
2022-10-10T04:00:21.861Z,13.97
2022-10-10T04:02:50.592Z,13.80
2022-10-10T04:05:19.563Z,13.37
2022-10-10T04:07:48.112Z,15.40
2022-10-10T04:10:16.829Z,13.47
2022-10-10T04:12:46.874Z,15.87
2022-10-10T04:15:15.432Z,15.07
2022-10-10T04:17:44.026Z,14.13
2022-10-10T04:20:12.600Z,13.60
2022-10-10T04:22:42.927Z,14.30
2022-10-10T04:25:11.768Z,15.30
2022-10-10T04:27:40.831Z,15.23
2022-10-10T04:30:12.158Z,14.77
2022-10-10T04:32:41.166Z,13.67
2022-10-10T04:35:10.326Z,13.20
2022-10-10T04:37:38.971Z,15.57
2022-10-10T04:40:08.513Z,15.27
2022-10-10T04:42:37.112Z,15.63
2022-10-10T04:45:07.219Z,16.00
2022-10-10T04:47:37.393Z,15.20
2022-10-10T04:50:06.483Z,15.80
2022-10-10T04:52:35.186Z,18.30
2022-10-10T04:55:03.853Z,18.50
2022-10-10T04:57:32.598Z,21.63
2022-10-10T05:00:01.190Z,21.67
2022-10-10T05:02:29.930Z,19.93
2022-10-10T05:05:00.089Z,16.53
2022-10-10T05:07:28.677Z,18.97
2022-10-10T05:09:58.074Z,17.03
2022-10-10T05:12:28.242Z,16.70
2022-10-10T05:14:56.800Z,16.63
2022-10-10T05:17:25.535Z,17.67
2022-10-10T05:19:54.160Z,18.70
2022-10-10T05:22:24.322Z,18.53
2022-10-10T05:24:53.041Z,18.33
2022-10-10T05:27:21.658Z,18.67
2022-10-10T05:29:50.535Z,19.20
2022-10-10T05:32:19.161Z,21.43
2022-10-10T05:34:48.051Z,22.33
2022-10-10T05:37:16.962Z,19.50
2022-10-10T05:39:52.372Z,20.47
2022-10-10T05:42:23.141Z,20.80
2022-10-10T05:44:52.023Z,21.60
2022-10-10T05:47:24.180Z,21.43
2022-10-10T05:49:55.804Z,17.97
2022-10-10T05:52:24.556Z,19.40
2022-10-10T05:54:54.718Z,19.50
2022-10-10T05:57:23.279Z,18.30
2022-10-10T05:59:52.086Z,19.47
2022-10-10T06:02:20.893Z,19.30
2022-10-10T06:04:49.809Z,19.23
2022-10-10T06:07:18.565Z,18.87
2022-10-10T06:09:47.381Z,19.67
2022-10-10T06:12:17.750Z,19.23
2022-10-10T06:14:46.420Z,18.50
2022-10-10T06:17:15.098Z,19.90
2022-10-10T06:19:43.943Z,19.30
2022-10-10T06:22:12.780Z,19.43
2022-10-10T06:24:41.470Z,18.10
2022-10-10T06:27:10.183Z,17.27
2022-10-10T06:29:48.100Z,18.53
2022-10-10T06:32:18.106Z,17.50
2022-10-10T06:34:47.295Z,17.80
2022-10-10T06:37:17.243Z,18.47
2022-10-10T06:39:46.872Z,18.80
2022-10-10T06:42:15.901Z,19.40
2022-10-10T06:44:46.583Z,19.10
2022-10-10T06:47:15.488Z,19.80
2022-10-10T06:49:44.818Z,18.40
2022-10-10T06:52:13.798Z,19.30
2022-10-10T06:54:45.000Z,18.17
2022-10-10T06:57:13.695Z,15.40
2022-10-10T06:59:42.338Z,17.47
2022-10-10T07:02:15.843Z,18.27
2022-10-10T07:04:44.987Z,18.10
2022-10-10T07:07:14.671Z,18.33
2022-10-10T07:09:43.665Z,16.53
2022-10-10T07:12:12.731Z,14.30
2022-10-10T07:14:41.721Z,14.80
2022-10-10T07:17:10.862Z,15.07
2022-10-10T07:19:41.303Z,14.87
2022-10-10T07:22:10.246Z,14.27
2022-10-10T07:24:39.043Z,13.90
2022-10-10T07:27:08.897Z,13.30
2022-10-10T07:29:37.856Z,15.83
2022-10-10T07:32:06.609Z,14.27
2022-10-10T07:34:37.275Z,13.67
2022-10-10T07:37:07.565Z,14.70
2022-10-10T07:39:38.300Z,13.60
2022-10-10T07:42:08.185Z,14.70
2022-10-10T07:44:36.951Z,13.90
2022-10-10T07:47:06.136Z,12.50
2022-10-10T07:49:36.853Z,13.50
2022-10-10T07:52:08.031Z,13.27
2022-10-10T07:54:36.819Z,12.77
2022-10-10T07:57:05.804Z,13.00
2022-10-10T07:59:34.828Z,13.40
2022-10-10T08:02:05.411Z,12.63
2022-10-10T08:04:36.768Z,13.30
2022-10-10T08:07:08.538Z,13.53
2022-10-10T08:09:38.319Z,13.10
2022-10-10T08:12:07.335Z,12.33
2022-10-10T08:14:36.340Z,10.73
2022-10-10T08:17:05.379Z,10.93
2022-10-10T08:19:34.119Z,11.20
2022-10-10T08:22:03.671Z,11.40
2022-10-10T08:24:34.814Z,11.27
2022-10-10T08:27:04.038Z,10.93
2022-10-10T08:29:34.880Z,11.50
2022-10-10T08:32:04.102Z,11.13
2022-10-10T08:34:33.160Z,11.23
2022-10-10T08:37:02.097Z,10.10
2022-10-10T08:39:31.139Z,11.13
2022-10-10T08:42:03.227Z,10.90
2022-10-10T08:44:38.971Z,11.60
2022-10-10T08:47:13.901Z,12.17
2022-10-10T08:49:47.835Z,11.30
2022-10-10T08:52:26.665Z,11.03
2022-10-10T08:54:58.637Z,10.53
2022-10-10T08:57:32.318Z,9.63
2022-10-10T09:00:06.058Z,11.00
2022-10-10T09:02:56.342Z,9.73
2022-10-10T09:05:39.336Z,9.50
2022-10-10T09:08:28.828Z,9.20
2022-10-10T09:11:00.435Z,8.87
2022-10-10T09:13:38.575Z,8.93
2022-10-10T09:16:18.639Z,8.87
2022-10-10T09:19:00.399Z,8.67
2022-10-10T09:21:32.993Z,8.37
2022-10-10T09:24:08.089Z,9.00
2022-10-10T09:26:42.012Z,7.95
2022-10-10T09:29:30.713Z,9.67
2022-10-10T09:32:06.767Z,10.13
2022-10-10T09:34:40.192Z,10.80
2022-10-10T09:37:29.544Z,8.40
2022-10-10T09:40:15.267Z,8.02
2022-10-10T09:42:46.264Z,7.43
2022-10-10T09:45:21.688Z,7.40
2022-10-10T09:47:54.777Z,7.65
2022-10-10T09:50:24.508Z,7.47
2022-10-10T09:52:54.708Z,7.43
2022-10-10T09:55:30.544Z,7.22
2022-10-10T09:58:06.150Z,7.28
2022-10-10T10:00:38.898Z,7.25
2022-10-10T10:03:13.935Z,7.22
2022-10-10T10:05:45.839Z,6.70
2022-10-10T10:08:24.504Z,7.22
2022-10-10T10:10:53.414Z,6.47
2022-10-10T10:13:28.677Z,6.20
2022-10-10T10:16:08.390Z,7.40
2022-10-10T10:18:43.495Z,7.40
2022-10-10T10:21:26.880Z,6.47
2022-10-10T10:24:06.233Z,7.90
2022-10-10T10:26:48.197Z,7.13
2022-10-10T10:29:39.886Z,7.67
2022-10-10T10:32:22.313Z,6.73
2022-10-10T10:35:17.448Z,7.33
2022-10-10T10:38:04.413Z,7.47
2022-10-10T10:40:41.348Z,7.20
2022-10-10T10:43:42.302Z,7.57
2022-10-10T10:46:19.364Z,7.33
2022-10-10T10:49:00.915Z,7.03
2022-10-10T10:51:50.960Z,6.80
2022-10-10T10:54:40.275Z,7.53
2022-10-10T11:00:22.483Z,8.00
2022-10-10T11:03:38.535Z,7.57
2022-10-10T11:06:19.785Z,7.00
2022-10-10T11:09:00.258Z,6.73
2022-10-10T11:11:38.846Z,6.80
2022-10-10T11:14:19.449Z,6.00
2022-10-10T11:16:52.914Z,6.97
2022-10-10T11:19:27.990Z,5.90
2022-10-10T11:22:07.688Z,6.30
2022-10-10T11:24:44.721Z,7.20
2022-10-10T11:27:19.001Z,5.70
2022-10-10T11:29:59.850Z,5.90
2022-10-10T11:32:34.004Z,5.87
2022-10-10T11:35:27.386Z,5.50
2022-10-10T11:38:02.717Z,5.30
2022-10-10T11:40:42.813Z,5.57
2022-10-10T11:43:21.628Z,4.90
2022-10-10T11:46:02.689Z,4.83
2022-10-10T11:48:41.467Z,5.60
2022-10-10T11:51:19.536Z,5.43
2022-10-10T11:53:53.113Z,5.37
2022-10-10T11:56:31.660Z,6.37
2022-10-10T11:59:08.008Z,5.83
2022-10-10T12:01:42.159Z,5.90
2022-10-10T12:04:11.074Z,5.83
2022-10-10T12:06:46.924Z,5.40
2022-10-10T12:09:22.229Z,5.67
2022-10-10T12:11:57.884Z,5.23
2022-10-10T12:14:29.932Z,5.70
2022-10-10T12:16:59.210Z,5.70
2022-10-10T12:19:29.581Z,5.90
2022-10-10T12:22:05.208Z,6.33
2022-10-10T12:24:42.255Z,5.53
2022-10-10T12:27:44.241Z,6.13
2022-10-10T12:30:26.757Z,5.43
2022-10-10T12:32:55.736Z,5.50
2022-10-10T12:35:39.595Z,5.53
2022-10-10T12:38:16.179Z,5.43
2022-10-10T12:41:15.135Z,5.20
2022-10-10T12:44:15.146Z,5.10
2022-10-10T12:46:44.868Z,5.60
2022-10-10T12:49:22.756Z,5.93
2022-10-10T12:52:03.767Z,5.70
2022-10-10T12:54:40.969Z,6.03
2022-10-10T12:57:20.105Z,5.80
2022-10-10T12:59:49.532Z,6.40
2022-10-10T13:02:24.086Z,6.97
2022-10-10T13:04:56.198Z,6.37
2022-10-10T13:07:26.234Z,6.43
2022-10-10T13:09:59.139Z,5.40
2022-10-10T13:12:33.576Z,6.63
2022-10-10T13:15:02.519Z,6.50
2022-10-10T13:17:33.133Z,5.80
2022-10-10T13:20:03.029Z,6.40
2022-10-10T13:22:33.981Z,5.97
2022-10-10T13:25:05.938Z,6.00
2022-10-10T13:27:37.084Z,6.30
2022-10-10T13:30:08.655Z,6.30
2022-10-10T13:32:38.225Z,6.73
2022-10-10T13:35:13.648Z,6.47
2022-10-10T13:37:44.442Z,6.97
2022-10-10T13:40:20.694Z,6.60
2022-10-10T13:42:52.895Z,6.57
2022-10-10T13:45:38.954Z,5.90
2022-10-10T13:48:38.981Z,6.77
2022-10-10T13:51:11.138Z,6.53
2022-10-10T13:53:54.435Z,7.30
2022-10-10T13:56:28.285Z,6.47
2022-10-10T13:59:06.555Z,7.43
2022-10-10T14:01:39.684Z,7.10
2022-10-10T14:04:19.620Z,6.60
2022-10-10T14:07:02.839Z,6.90
2022-10-10T14:09:37.569Z,7.17
2022-10-10T14:12:16.141Z,6.50
2022-10-10T14:14:49.028Z,6.90
2022-10-10T14:17:18.230Z,7.07
2022-10-10T14:19:51.264Z,6.77
2022-10-10T14:22:22.916Z,6.60
2022-10-10T14:24:55.414Z,6.40
2022-10-10T14:27:26.949Z,5.90
2022-10-10T14:29:58.729Z,5.73
2022-10-10T14:32:30.457Z,6.60
2022-10-10T14:35:01.555Z,6.10
2022-10-10T14:37:33.390Z,5.77
2022-10-10T14:40:29.049Z,4.90
2022-10-10T14:42:59.087Z,5.30
2022-10-10T14:45:32.487Z,5.60
2022-10-10T14:48:01.918Z,5.23
2022-10-10T14:50:35.888Z,4.60
2022-10-10T14:53:05.709Z,4.77
2022-10-10T14:55:34.537Z,4.67
2022-10-10T14:58:05.681Z,5.27
2022-10-10T15:00:39.595Z,4.70
2022-10-10T15:03:08.993Z,4.80
2022-10-10T15:05:40.838Z,5.13
2022-10-10T15:08:09.709Z,5.53
2022-10-10T15:10:38.588Z,5.30
2022-10-10T15:13:07.382Z,4.77
2022-10-10T15:15:37.874Z,5.03
2022-10-10T15:18:26.725Z,4.80
2022-10-10T15:20:56.685Z,5.70
2022-10-10T15:23:25.575Z,5.17
2022-10-10T15:25:54.585Z,5.77
2022-10-10T15:28:23.447Z,4.83
2022-10-10T15:30:54.891Z,6.30
2022-10-10T15:33:23.613Z,5.87
2022-10-10T15:36:10.577Z,5.03
2022-10-10T15:38:42.459Z,5.90
2022-10-10T15:41:12.602Z,5.10
2022-10-10T15:43:53.822Z,6.00
2022-10-10T15:46:25.650Z,6.17
2022-10-10T15:48:54.903Z,5.47
2022-10-10T15:51:24.367Z,5.77
2022-10-10T15:53:53.354Z,5.10
2022-10-10T15:56:22.039Z,6.00
2022-10-10T15:59:13.481Z,6.60
2022-10-10T16:01:45.509Z,6.30
2022-10-10T16:04:14.657Z,7.10
2022-10-10T16:06:54.130Z,6.30
2022-10-10T16:09:29.171Z,7.33
2022-10-10T16:11:58.382Z,7.20
2022-10-10T16:14:27.700Z,6.20
2022-10-10T16:17:00.821Z,6.13
2022-10-10T16:19:30.656Z,6.10
2022-10-10T16:25:22.883Z,7.23
2022-10-10T16:27:55.057Z,7.97
2022-10-10T16:30:26.347Z,7.77
2022-10-10T16:33:04.835Z,6.53
2022-10-10T16:35:38.603Z,8.40
2022-10-10T16:38:09.059Z,7.77
2022-10-10T16:40:38.107Z,7.40
2022-10-10T16:43:07.079Z,7.37
2022-10-10T16:45:35.836Z,8.00
2022-10-10T16:48:06.373Z,7.77
2022-10-10T16:50:35.025Z,7.43
2022-10-10T16:53:04.078Z,8.80
2022-10-10T16:55:32.984Z,8.27
2022-10-10T16:58:01.959Z,10.00
2022-10-10T17:00:31.193Z,9.57
2022-10-10T17:03:00.459Z,9.40
2022-10-10T17:05:30.649Z,11.63
2022-10-10T17:07:59.792Z,11.60
2022-10-10T17:10:28.696Z,11.03
2022-10-10T17:12:57.373Z,12.67
2022-10-10T17:15:26.144Z,12.20
2022-10-10T17:17:54.831Z,11.47
2022-10-10T17:20:23.671Z,11.00
2022-10-10T17:22:54.033Z,11.87
2022-10-10T17:25:22.968Z,12.37
2022-10-10T17:27:51.691Z,11.30
2022-10-10T17:30:20.857Z,8.97
2022-10-10T17:32:49.509Z,10.13
2022-10-10T17:35:19.007Z,10.80
2022-10-10T17:37:47.784Z,10.90
2022-10-10T17:40:18.870Z,10.00
2022-10-10T17:42:47.634Z,9.90
2022-10-10T17:45:17.104Z,10.03
2022-10-10T17:47:46.776Z,9.00
2022-10-10T17:50:16.033Z,9.80
2022-10-10T17:52:44.991Z,10.17
2022-10-10T17:55:14.332Z,9.27
2022-10-10T17:57:48.993Z,10.20
2022-10-10T18:00:18.591Z,10.77
2022-10-10T18:02:47.496Z,9.77
2022-10-10T18:05:17.046Z,11.30
2022-10-10T18:07:47.225Z,10.70
2022-10-10T18:10:16.860Z,11.10
2022-10-10T18:12:47.316Z,10.60
2022-10-10T18:15:16.060Z,10.07
2022-10-10T18:17:44.821Z,10.57
2022-10-10T18:20:14.071Z,10.70
2022-10-10T18:22:42.926Z,9.20
2022-10-10T18:25:13.060Z,11.87
2022-10-10T18:27:42.090Z,10.60
2022-10-10T18:30:14.618Z,11.80
2022-10-10T18:32:43.437Z,10.90
2022-10-10T18:35:12.968Z,10.37
2022-10-10T18:37:42.151Z,9.77
2022-10-10T18:40:24.766Z,9.40
2022-10-10T18:42:56.541Z,10.77
2022-10-10T18:45:30.559Z,10.50
2022-10-10T18:48:00.494Z,10.30
2022-10-10T18:50:33.588Z,10.93
2022-10-10T18:53:04.910Z,10.70
2022-10-10T18:55:37.369Z,9.50
2022-10-10T18:58:08.443Z,10.60
2022-10-10T19:00:39.535Z,10.60
2022-10-10T19:03:08.483Z,9.70
2022-10-10T19:05:41.808Z,10.57
2022-10-10T19:08:11.171Z,11.43
2022-10-10T19:10:46.973Z,9.87
2022-10-10T19:13:16.369Z,10.90
2022-10-10T19:15:47.461Z,10.23
2022-10-10T19:18:16.292Z,11.27
2022-10-10T19:20:46.305Z,10.83
2022-10-10T19:23:15.373Z,10.90
2022-10-10T19:25:46.566Z,11.10
2022-10-10T19:28:15.672Z,10.07
2022-10-10T19:30:47.024Z,10.73
2022-10-10T19:33:15.881Z,10.43
2022-10-10T19:35:51.405Z,10.03
2022-10-10T19:38:23.137Z,11.07
2022-10-10T19:40:53.047Z,10.83
2022-10-10T19:43:22.082Z,11.10
2022-10-10T19:45:56.004Z,10.77
2022-10-10T19:48:26.843Z,11.97
2022-10-10T19:50:57.227Z,11.40
2022-10-10T19:53:25.938Z,10.60
2022-10-10T19:56:03.242Z,12.03
2022-10-10T19:58:32.023Z,10.33
2022-10-10T20:01:02.269Z,11.27
2022-10-10T20:03:31.027Z,10.77
2022-10-10T20:06:02.453Z,11.53
2022-10-10T20:08:32.010Z,12.47
2022-10-10T20:11:00.780Z,12.30
2022-10-10T20:13:29.730Z,10.17
2022-10-10T20:16:04.988Z,12.70
2022-10-10T20:18:36.136Z,11.17
2022-10-10T20:21:15.634Z,11.70
2022-10-10T20:23:46.442Z,10.97
2022-10-10T20:26:17.059Z,12.07
2022-10-10T20:28:46.984Z,12.40
2022-10-10T20:31:22.886Z,11.37
2022-10-10T20:33:53.826Z,11.20
2022-10-10T20:36:24.303Z,10.60
2022-10-10T20:38:54.438Z,10.30
2022-10-10T20:41:24.914Z,10.40
2022-10-10T20:43:58.506Z,11.07
2022-10-10T20:46:31.236Z,10.70
2022-10-10T20:49:01.366Z,10.40
2022-10-10T20:51:30.437Z,11.13
2022-10-10T20:54:01.557Z,10.27
2022-10-10T20:56:32.437Z,11.13
2022-10-10T20:59:01.690Z,11.20
2022-10-10T21:01:32.662Z,12.50
2022-10-10T21:04:02.282Z,11.70
2022-10-10T21:06:32.755Z,12.50
2022-10-10T21:09:03.848Z,11.70
2022-10-10T21:11:32.685Z,11.47
2022-10-10T21:14:02.774Z,11.97
2022-10-10T21:16:34.999Z,12.23
2022-10-10T21:19:04.319Z,10.23
2022-10-10T21:21:35.381Z,10.73
2022-10-10T21:24:06.353Z,14.50
2022-10-10T21:26:35.045Z,12.90
2022-10-10T21:29:04.521Z,12.60
2022-10-10T21:31:36.994Z,13.10
2022-10-10T21:34:07.689Z,11.90
2022-10-10T21:36:37.860Z,12.43
2022-10-10T21:39:08.049Z,11.30
2022-10-10T21:41:37.954Z,14.03
2022-10-10T21:44:07.019Z,13.43
2022-10-10T21:46:38.267Z,12.70
2022-10-10T21:49:08.514Z,12.10
2022-10-10T21:51:38.711Z,12.50
2022-10-10T21:54:08.340Z,13.80
2022-10-10T21:56:37.414Z,13.03
2022-10-10T21:59:06.439Z,12.30
2022-10-10T22:01:37.850Z,14.10
2022-10-10T22:04:06.730Z,13.20
2022-10-10T22:06:35.593Z,13.10
2022-10-10T22:09:04.708Z,13.67
2022-10-10T22:11:35.064Z,13.50
2022-10-10T22:14:04.604Z,13.63
2022-10-10T22:16:33.541Z,12.70
2022-10-10T22:19:04.461Z,13.30
2022-10-10T22:21:35.156Z,14.17
2022-10-10T22:24:07.055Z,17.17
2022-10-10T22:26:36.448Z,15.53
2022-10-10T22:29:05.845Z,17.80
2022-10-10T22:31:35.791Z,15.97
2022-10-10T22:34:06.193Z,14.80
2022-10-10T22:36:35.095Z,13.60
2022-10-10T22:39:03.811Z,16.23
2022-10-10T22:41:32.664Z,14.50
2022-10-10T22:44:01.295Z,13.40
2022-10-10T22:46:29.932Z,15.00
2022-10-10T22:48:58.646Z,13.00
2022-10-10T22:51:28.713Z,13.40
2022-10-10T22:53:57.582Z,14.10
2022-10-10T22:56:26.276Z,14.00
2022-10-10T22:58:54.912Z,14.90
2022-10-10T23:01:26.285Z,13.77
2022-10-10T23:03:56.387Z,14.50
2022-10-10T23:06:25.346Z,13.87
2022-10-10T23:08:55.758Z,12.67
2022-10-10T23:11:24.338Z,14.50
2022-10-10T23:13:53.442Z,13.80
2022-10-10T23:16:22.392Z,13.90
2022-10-10T23:18:51.155Z,12.77
2022-10-10T23:21:20.192Z,13.10
2022-10-10T23:23:48.858Z,12.87
2022-10-10T23:26:19.019Z,12.87
2022-10-10T23:28:50.368Z,12.00
2022-10-10T23:31:19.169Z,13.00
2022-10-10T23:33:47.734Z,12.23
2022-10-10T23:36:17.316Z,12.30
2022-10-10T23:38:45.911Z,13.53
2022-10-10T23:41:15.786Z,12.23
2022-10-10T23:43:45.907Z,12.20
2022-10-10T23:46:15.208Z,12.80
2022-10-10T23:48:44.138Z,11.80
2022-10-10T23:51:13.214Z,11.53
2022-10-10T23:53:41.767Z,12.53
2022-10-10T23:56:11.157Z,12.10
2022-10-10T23:58:39.702Z,12.10
